sensor_id;sensor_type;location;lat;lon;timestamp;P1;P2;P0
77239;PMS7003;66258;53.170;-2.240;2023-03-21T00:01:50;3746.00;3746.00;3746.00
77239;PMS7003;66258;53.170;-2.240;2023-03-21T00:04:18;3749.40;3749.40;3749.40
77239;PMS7003;66258;53.170;-2.240;2023-03-21T00:06:46;3763.40;3763.40;3763.40
77239;PMS7003;66258;53.170;-2.240;2023-03-21T00:09:14;3734.80;3734.80;3734.80
77239;PMS7003;66258;53.170;-2.240;2023-03-21T00:11:41;3746.40;3746.40;3746.40
77239;PMS7003;66258;53.170;-2.240;2023-03-21T00:14:09;3721.40;3721.40;3721.40
77239;PMS7003;66258;53.170;-2.240;2023-03-21T00:16:38;3783.40;3783.40;3783.40
77239;PMS7003;66258;53.170;-2.240;2023-03-21T00:19:07;3723.50;3723.50;3723.50
77239;PMS7003;66258;53.170;-2.240;2023-03-21T00:21:36;3723.60;3723.60;3723.60
77239;PMS7003;66258;53.170;-2.240;2023-03-21T00:24:20;3763.00;3763.00;3763.00
77239;PMS7003;66258;53.170;-2.240;2023-03-21T00:26:49;3771.40;3771.40;3771.40
77239;PMS7003;66258;53.170;-2.240;2023-03-21T00:29:16;3786.80;3786.80;3786.80
77239;PMS7003;66258;53.170;-2.240;2023-03-21T00:31:44;3489.00;3484.60;3482.00
77239;PMS7003;66258;53.170;-2.240;2023-03-21T00:34:14;3687.00;3687.00;3687.00
77239;PMS7003;66258;53.170;-2.240;2023-03-21T00:36:43;3746.00;3746.00;3746.00
77239;PMS7003;66258;53.170;-2.240;2023-03-21T00:39:12;3756.20;3756.20;3756.20
77239;PMS7003;66258;53.170;-2.240;2023-03-21T00:41:39;3429.20;3422.20;3418.20
77239;PMS7003;66258;53.170;-2.240;2023-03-21T00:44:09;2981.40;2964.20;2951.00
77239;PMS7003;66258;53.170;-2.240;2023-03-21T00:46:37;3771.40;3771.40;3771.40
77239;PMS7003;66258;53.170;-2.240;2023-03-21T00:49:18;3428.20;3424.00;3419.20
77239;PMS7003;66258;53.170;-2.240;2023-03-21T00:51:46;3011.60;2999.20;2991.20
77239;PMS7003;66258;53.170;-2.240;2023-03-21T00:54:13;3758.20;3758.20;3758.20
77239;PMS7003;66258;53.170;-2.240;2023-03-21T00:56:40;3417.25;3413.25;3407.75
77239;PMS7003;66258;53.170;-2.240;2023-03-21T00:59:08;3560.00;3557.20;3554.60
77239;PMS7003;66258;53.170;-2.240;2023-03-21T01:01:42;3234.40;3231.20;3226.20
77239;PMS7003;66258;53.170;-2.240;2023-03-21T01:04:11;3385.60;3374.60;3370.40
77239;PMS7003;66258;53.170;-2.240;2023-03-21T01:06:42;3646.60;3645.40;3643.00
77239;PMS7003;66258;53.170;-2.240;2023-03-21T01:09:11;2629.40;2613.60;2605.60
77239;PMS7003;66258;53.170;-2.240;2023-03-21T01:11:40;3739.40;3739.40;3739.40
77239;PMS7003;66258;53.170;-2.240;2023-03-21T01:14:10;3788.50;3788.50;3788.50
77239;PMS7003;66258;53.170;-2.240;2023-03-21T01:16:54;3060.50;3050.50;3042.00
77239;PMS7003;66258;53.170;-2.240;2023-03-21T01:19:23;3771.50;3771.50;3771.50
77239;PMS7003;66258;53.170;-2.240;2023-03-21T01:22:12;2683.50;2638.75;2615.25
77239;PMS7003;66258;53.170;-2.240;2023-03-21T01:24:40;3570.60;3569.00;3566.20
77239;PMS7003;66258;53.170;-2.240;2023-03-21T01:27:19;3746.40;3746.40;3746.40
77239;PMS7003;66258;53.170;-2.240;2023-03-21T01:29:47;3723.00;3723.00;3723.00
77239;PMS7003;66258;53.170;-2.240;2023-03-21T01:32:14;3744.50;3744.50;3744.50
77239;PMS7003;66258;53.170;-2.240;2023-03-21T01:34:45;3773.20;3773.20;3773.20
77239;PMS7003;66258;53.170;-2.240;2023-03-21T01:37:14;2998.50;2978.25;2966.25
77239;PMS7003;66258;53.170;-2.240;2023-03-21T01:39:41;3635.60;3634.40;3633.80
77239;PMS7003;66258;53.170;-2.240;2023-03-21T01:42:09;3392.60;3392.20;3388.80
77239;PMS7003;66258;53.170;-2.240;2023-03-21T01:44:51;3758.20;3758.20;3758.20
77239;PMS7003;66258;53.170;-2.240;2023-03-21T01:47:23;3744.50;3744.50;3744.50
77239;PMS7003;66258;53.170;-2.240;2023-03-21T01:49:51;3416.50;3414.50;3411.00
77239;PMS7003;66258;53.170;-2.240;2023-03-21T01:52:28;3782.00;3782.00;3782.00
77239;PMS7003;66258;53.170;-2.240;2023-03-21T01:55:04;3779.50;3779.50;3779.50
77239;PMS7003;66258;53.170;-2.240;2023-03-21T01:57:43;3779.60;3779.60;3779.60
77239;PMS7003;66258;53.170;-2.240;2023-03-21T02:00:29;3610.00;3609.60;3607.20
77239;PMS7003;66258;53.170;-2.240;2023-03-21T02:02:58;2974.40;2964.40;2956.00
77239;PMS7003;66258;53.170;-2.240;2023-03-21T02:05:43;3229.20;3212.00;3202.80
77239;PMS7003;66258;53.170;-2.240;2023-03-21T02:08:20;3771.50;3771.50;3771.50
77239;PMS7003;66258;53.170;-2.240;2023-03-21T02:11:01;3143.20;3126.60;3116.20
77239;PMS7003;66258;53.170;-2.240;2023-03-21T02:13:30;3754.40;3754.40;3754.40
77239;PMS7003;66258;53.170;-2.240;2023-03-21T02:15:58;3412.50;3409.75;3404.50
77239;PMS7003;66258;53.170;-2.240;2023-03-21T02:18:33;3195.80;3189.40;3181.00
77239;PMS7003;66258;53.170;-2.240;2023-03-21T02:21:10;3061.25;3051.25;3043.25
77239;PMS7003;66258;53.170;-2.240;2023-03-21T02:24:23;3332.50;3328.25;3317.75
77239;PMS7003;66258;53.170;-2.240;2023-03-21T02:27:11;2829.40;2812.20;2798.20
77239;PMS7003;66258;53.170;-2.240;2023-03-21T02:30:02;3813.75;3813.75;3813.75
77239;PMS7003;66258;53.170;-2.240;2023-03-21T02:33:10;3759.60;3759.60;3759.60
77239;PMS7003;66258;53.170;-2.240;2023-03-21T02:36:12;3752.25;3752.25;3752.25
77239;PMS7003;66258;53.170;-2.240;2023-03-21T02:38:46;3238.25;3232.25;3228.25
77239;PMS7003;66258;53.170;-2.240;2023-03-21T02:41:20;3725.20;3725.20;3725.20
77239;PMS7003;66258;53.170;-2.240;2023-03-21T02:44:06;3606.67;3605.33;3604.67
77239;PMS7003;66258;53.170;-2.240;2023-03-21T02:46:43;3772.80;3772.80;3772.80
77239;PMS7003;66258;53.170;-2.240;2023-03-21T02:49:31;3801.25;3801.25;3801.25
77239;PMS7003;66258;53.170;-2.240;2023-03-21T02:52:05;3743.33;3743.33;3743.33
77239;PMS7003;66258;53.170;-2.240;2023-03-21T02:54:47;2890.00;2869.00;2857.00
77239;PMS7003;66258;53.170;-2.240;2023-03-21T02:57:16;3417.20;3414.20;3409.20
77239;PMS7003;66258;53.170;-2.240;2023-03-21T02:59:45;2571.75;2556.50;2545.25
77239;PMS7003;66258;53.170;-2.240;2023-03-21T03:02:23;3758.75;3758.75;3758.75
77239;PMS7003;66258;53.170;-2.240;2023-03-21T03:04:54;3066.60;3050.80;3042.80
77239;PMS7003;66258;53.170;-2.240;2023-03-21T03:07:27;3784.25;3784.25;3784.25
77239;PMS7003;66258;53.170;-2.240;2023-03-21T03:13:08;3347.25;3333.00;3328.75
77239;PMS7003;66258;53.170;-2.240;2023-03-21T03:15:46;3821.00;3821.00;3821.00
77239;PMS7003;66258;53.170;-2.240;2023-03-21T03:18:24;3231.80;3218.00;3213.40
77239;PMS7003;66258;53.170;-2.240;2023-03-21T03:20:59;3550.50;3548.50;3542.50
77239;PMS7003;66258;53.170;-2.240;2023-03-21T03:23:34;3169.00;3157.60;3147.00
77239;PMS7003;66258;53.170;-2.240;2023-03-21T03:26:10;3572.00;3566.60;3563.00
77239;PMS7003;66258;53.170;-2.240;2023-03-21T03:28:47;2316.50;2274.00;2258.00
77239;PMS7003;66258;53.170;-2.240;2023-03-21T03:31:19;3433.80;3417.80;3409.80
77239;PMS7003;66258;53.170;-2.240;2023-03-21T03:33:52;3582.50;3581.50;3576.50
77239;PMS7003;66258;53.170;-2.240;2023-03-21T03:36:27;3381.00;3379.00;3373.00
77239;PMS7003;66258;53.170;-2.240;2023-03-21T03:38:59;3693.25;3693.25;3693.25
77239;PMS7003;66258;53.170;-2.240;2023-03-21T03:41:30;3761.60;3761.60;3761.60
77239;PMS7003;66258;53.170;-2.240;2023-03-21T03:44:26;3420.50;3410.50;3406.00
77239;PMS7003;66258;53.170;-2.240;2023-03-21T03:47:03;3773.20;3773.20;3773.20
77239;PMS7003;66258;53.170;-2.240;2023-03-21T03:49:56;3785.00;3785.00;3785.00
77239;PMS7003;66258;53.170;-2.240;2023-03-21T03:52:32;3758.00;3758.00;3758.00
77239;PMS7003;66258;53.170;-2.240;2023-03-21T03:55:19;3291.80;3289.80;3284.20
77239;PMS7003;66258;53.170;-2.240;2023-03-21T03:57:49;3694.80;3694.80;3693.60
77239;PMS7003;66258;53.170;-2.240;2023-03-21T04:00:20;2875.60;2865.60;2856.20
77239;PMS7003;66258;53.170;-2.240;2023-03-21T04:02:48;3720.00;3720.00;3720.00
77239;PMS7003;66258;53.170;-2.240;2023-03-21T04:05:16;3768.40;3768.40;3768.40
77239;PMS7003;66258;53.170;-2.240;2023-03-21T04:07:46;3771.40;3771.40;3771.40
77239;PMS7003;66258;53.170;-2.240;2023-03-21T04:10:14;2643.80;2621.80;2609.20
77239;PMS7003;66258;53.170;-2.240;2023-03-21T04:12:42;3348.50;3341.00;3336.00
77239;PMS7003;66258;53.170;-2.240;2023-03-21T04:15:10;3068.00;3044.80;3033.20
77239;PMS7003;66258;53.170;-2.240;2023-03-21T04:17:41;3234.80;3223.20;3218.80
77239;PMS7003;66258;53.170;-2.240;2023-03-21T04:20:09;3642.20;3642.20;3642.20
77239;PMS7003;66258;53.170;-2.240;2023-03-21T04:22:48;3112.75;3102.75;3095.25
77239;PMS7003;66258;53.170;-2.240;2023-03-21T04:25:16;3739.80;3739.80;3739.80
77239;PMS7003;66258;53.170;-2.240;2023-03-21T04:27:57;3507.00;3502.25;3497.00
77239;PMS7003;66258;53.170;-2.240;2023-03-21T04:30:24;3384.20;3384.20;3384.20
77239;PMS7003;66258;53.170;-2.240;2023-03-21T04:32:54;3400.60;3392.60;3390.60
77239;PMS7003;66258;53.170;-2.240;2023-03-21T04:35:22;3356.00;3354.20;3352.20
77239;PMS7003;66258;53.170;-2.240;2023-03-21T04:37:50;2812.00;2799.00;2793.00
77239;PMS7003;66258;53.170;-2.240;2023-03-21T04:40:18;3758.20;3758.20;3758.20
77239;PMS7003;66258;53.170;-2.240;2023-03-21T04:42:46;3729.80;3729.80;3729.80
77239;PMS7003;66258;53.170;-2.240;2023-03-21T04:45:15;3413.50;3405.50;3399.50
77239;PMS7003;66258;53.170;-2.240;2023-03-21T04:47:43;3337.80;3332.60;3327.00
77239;PMS7003;66258;53.170;-2.240;2023-03-21T04:50:12;3501.80;3498.80;3496.40
77239;PMS7003;66258;53.170;-2.240;2023-03-21T04:52:39;3620.00;3618.80;3615.20
77239;PMS7003;66258;53.170;-2.240;2023-03-21T04:55:09;3452.60;3449.00;3440.60
77239;PMS7003;66258;53.170;-2.240;2023-03-21T04:57:37;2187.40;2177.20;2149.60
77239;PMS7003;66258;53.170;-2.240;2023-03-21T05:00:06;3095.40;3089.00;3076.20
77239;PMS7003;66258;53.170;-2.240;2023-03-21T05:02:34;3106.80;3094.60;3086.40
77239;PMS7003;66258;53.170;-2.240;2023-03-21T05:05:03;3402.20;3393.20;3391.00
77239;PMS7003;66258;53.170;-2.240;2023-03-21T05:07:34;3258.80;3255.80;3247.00
77239;PMS7003;66258;53.170;-2.240;2023-03-21T05:10:02;3730.20;3730.20;3730.20
77239;PMS7003;66258;53.170;-2.240;2023-03-21T05:12:31;3310.40;3305.80;3296.00
77239;PMS7003;66258;53.170;-2.240;2023-03-21T05:14:59;2391.80;2368.00;2349.40
77239;PMS7003;66258;53.170;-2.240;2023-03-21T05:17:28;2663.80;2654.00;2622.80
77239;PMS7003;66258;53.170;-2.240;2023-03-21T05:19:56;3647.20;3646.80;3644.80
77239;PMS7003;66258;53.170;-2.240;2023-03-21T05:22:25;3438.20;3436.60;3434.20
77239;PMS7003;66258;53.170;-2.240;2023-03-21T05:24:53;3689.50;3689.50;3689.50
77239;PMS7003;66258;53.170;-2.240;2023-03-21T05:27:21;3405.20;3400.20;3393.20
77239;PMS7003;66258;53.170;-2.240;2023-03-21T05:29:49;3648.00;3646.40;3645.60
77239;PMS7003;66258;53.170;-2.240;2023-03-21T05:32:21;3605.40;3601.00;3597.80
77239;PMS7003;66258;53.170;-2.240;2023-03-21T05:34:48;3403.00;3399.00;3388.00
77239;PMS7003;66258;53.170;-2.240;2023-03-21T05:37:16;3477.40;3474.40;3468.60
77239;PMS7003;66258;53.170;-2.240;2023-03-21T05:39:43;3706.80;3706.80;3706.80
77239;PMS7003;66258;53.170;-2.240;2023-03-21T05:42:12;3678.20;3677.60;3675.20
77239;PMS7003;66258;53.170;-2.240;2023-03-21T05:44:40;3021.20;3012.60;2998.60
77239;PMS7003;66258;53.170;-2.240;2023-03-21T05:47:09;2655.60;2641.60;2624.60
77239;PMS7003;66258;53.170;-2.240;2023-03-21T05:49:36;1621.25;1560.25;1521.50
77239;PMS7003;66258;53.170;-2.240;2023-03-21T05:52:04;3414.25;3412.25;3402.75
77239;PMS7003;66258;53.170;-2.240;2023-03-21T05:54:31;2973.50;2965.50;2953.75
77239;PMS7003;66258;53.170;-2.240;2023-03-21T05:56:58;3094.00;3080.75;3067.25
77239;PMS7003;66258;53.170;-2.240;2023-03-21T05:59:30;3574.20;3573.00;3569.40
77239;PMS7003;66258;53.170;-2.240;2023-03-21T06:01:57;3005.20;3003.20;2989.60
77239;PMS7003;66258;53.170;-2.240;2023-03-21T06:04:26;3029.50;3016.75;3010.25
77239;PMS7003;66258;53.170;-2.240;2023-03-21T06:06:55;3635.75;3634.00;3632.75
77239;PMS7003;66258;53.170;-2.240;2023-03-21T06:09:22;3415.75;3413.75;3406.75
77239;PMS7003;66258;53.170;-2.240;2023-03-21T06:11:52;3357.80;3350.60;3345.60
77239;PMS7003;66258;53.170;-2.240;2023-03-21T06:14:21;3760.00;3760.00;3760.00
77239;PMS7003;66258;53.170;-2.240;2023-03-21T06:16:52;3737.80;3737.80;3737.80
77239;PMS7003;66258;53.170;-2.240;2023-03-21T06:19:19;3390.00;3385.00;3371.00
77239;PMS7003;66258;53.170;-2.240;2023-03-21T06:21:47;3575.20;3573.60;3571.60
77239;PMS7003;66258;53.170;-2.240;2023-03-21T06:24:14;3635.50;3635.50;3631.50
77239;PMS7003;66258;53.170;-2.240;2023-03-21T06:26:41;3514.40;3513.20;3507.80
77239;PMS7003;66258;53.170;-2.240;2023-03-21T06:29:08;2931.75;2920.00;2911.00
77239;PMS7003;66258;53.170;-2.240;2023-03-21T06:31:36;3397.00;3393.75;3389.00
77239;PMS7003;66258;53.170;-2.240;2023-03-21T06:34:06;3528.60;3528.60;3523.80
77239;PMS7003;66258;53.170;-2.240;2023-03-21T06:36:34;3359.60;3353.40;3349.60
77239;PMS7003;66258;53.170;-2.240;2023-03-21T06:39:01;3384.00;3379.50;3374.50
77239;PMS7003;66258;53.170;-2.240;2023-03-21T06:41:29;3408.20;3407.00;3396.60
77239;PMS7003;66258;53.170;-2.240;2023-03-21T06:43:56;2927.00;2917.80;2896.60
77239;PMS7003;66258;53.170;-2.240;2023-03-21T06:46:25;3603.20;3602.40;3600.40
77239;PMS7003;66258;53.170;-2.240;2023-03-21T06:48:52;3333.80;3327.80;3322.80
77239;PMS7003;66258;53.170;-2.240;2023-03-21T06:51:21;2942.20;2935.20;2916.40
77239;PMS7003;66258;53.170;-2.240;2023-03-21T06:53:47;2512.80;2504.40;2489.40
77239;PMS7003;66258;53.170;-2.240;2023-03-21T06:56:15;2835.00;2831.00;2820.60
77239;PMS7003;66258;53.170;-2.240;2023-03-21T06:58:42;3228.00;3222.75;3216.75
77239;PMS7003;66258;53.170;-2.240;2023-03-21T07:01:10;1152.60;1102.80;1063.80
77239;PMS7003;66258;53.170;-2.240;2023-03-21T07:03:37;3339.20;3338.00;3318.80
77239;PMS7003;66258;53.170;-2.240;2023-03-21T07:06:06;3005.80;2997.00;2981.20
77239;PMS7003;66258;53.170;-2.240;2023-03-21T07:08:39;2816.80;2812.60;2785.00
77239;PMS7003;66258;53.170;-2.240;2023-03-21T07:11:07;2712.60;2701.80;2686.40
77239;PMS7003;66258;53.170;-2.240;2023-03-21T07:13:36;3341.60;3339.40;3333.60
77239;PMS7003;66258;53.170;-2.240;2023-03-21T07:16:03;2773.40;2766.20;2741.20
77239;PMS7003;66258;53.170;-2.240;2023-03-21T07:18:32;3579.00;3577.40;3575.40
77239;PMS7003;66258;53.170;-2.240;2023-03-21T07:21:00;2318.40;2308.80;2275.20
77239;PMS7003;66258;53.170;-2.240;2023-03-21T07:23:28;3581.40;3579.80;3573.80
77239;PMS7003;66258;53.170;-2.240;2023-03-21T07:25:57;3047.75;3042.00;3025.50
77239;PMS7003;66258;53.170;-2.240;2023-03-21T07:28:24;3681.00;3681.00;3681.00
77239;PMS7003;66258;53.170;-2.240;2023-03-21T07:30:55;2762.40;2759.20;2728.20
77239;PMS7003;66258;53.170;-2.240;2023-03-21T07:33:23;1896.00;1889.20;1854.40
77239;PMS7003;66258;53.170;-2.240;2023-03-21T07:35:51;3064.00;3060.00;3050.80
77239;PMS7003;66258;53.170;-2.240;2023-03-21T07:38:20;2039.75;2028.75;2005.00
77239;PMS7003;66258;53.170;-2.240;2023-03-21T07:40:48;2406.40;2399.40;2375.60
77239;PMS7003;66258;53.170;-2.240;2023-03-21T07:43:17;2078.40;2073.40;2014.80
77239;PMS7003;66258;53.170;-2.240;2023-03-21T07:45:46;2467.60;2461.20;2438.60
77239;PMS7003;66258;53.170;-2.240;2023-03-21T07:48:16;1687.40;1675.20;1643.80
77239;PMS7003;66258;53.170;-2.240;2023-03-21T07:50:47;2741.80;2741.40;2704.00
77239;PMS7003;66258;53.170;-2.240;2023-03-21T07:53:16;2650.00;2638.40;2612.60
77239;PMS7003;66258;53.170;-2.240;2023-03-21T07:55:44;2713.40;2706.60;2689.40
77239;PMS7003;66258;53.170;-2.240;2023-03-21T07:58:14;2209.50;2207.50;2141.75
77239;PMS7003;66258;53.170;-2.240;2023-03-21T08:00:43;2521.60;2508.00;2491.00
77239;PMS7003;66258;53.170;-2.240;2023-03-21T08:03:10;2436.80;2420.00;2385.00
77239;PMS7003;66258;53.170;-2.240;2023-03-21T08:05:37;1902.00;1884.80;1855.60
77239;PMS7003;66258;53.170;-2.240;2023-03-21T08:08:05;1495.60;1486.40;1414.80
77239;PMS7003;66258;53.170;-2.240;2023-03-21T08:10:33;1564.50;1564.50;1494.50
77239;PMS7003;66258;53.170;-2.240;2023-03-21T08:13:01;2540.20;2531.60;2508.80
77239;PMS7003;66258;53.170;-2.240;2023-03-21T08:15:28;2609.00;2600.50;2578.00
77239;PMS7003;66258;53.170;-2.240;2023-03-21T08:17:58;2658.60;2651.00;2642.20
77239;PMS7003;66258;53.170;-2.240;2023-03-21T08:20:25;2432.60;2422.60;2403.80
77239;PMS7003;66258;53.170;-2.240;2023-03-21T08:22:53;2905.00;2899.00;2878.80
77239;PMS7003;66258;53.170;-2.240;2023-03-21T08:25:22;1747.00;1720.20;1677.60
77239;PMS7003;66258;53.170;-2.240;2023-03-21T08:27:50;2521.00;2516.20;2474.40
77239;PMS7003;66258;53.170;-2.240;2023-03-21T08:30:18;2626.60;2624.20;2608.00
77239;PMS7003;66258;53.170;-2.240;2023-03-21T08:32:46;2396.40;2391.80;2324.00
77239;PMS7003;66258;53.170;-2.240;2023-03-21T08:35:16;1814.00;1802.80;1754.20
77239;PMS7003;66258;53.170;-2.240;2023-03-21T08:37:45;2051.20;2039.40;2018.80
77239;PMS7003;66258;53.170;-2.240;2023-03-21T08:40:13;2371.80;2353.80;2331.40
77239;PMS7003;66258;53.170;-2.240;2023-03-21T08:42:44;2142.20;2135.80;2106.20
77239;PMS7003;66258;53.170;-2.240;2023-03-21T08:45:11;2286.40;2279.40;2260.40
77239;PMS7003;66258;53.170;-2.240;2023-03-21T08:47:41;2578.00;2571.20;2558.60
77239;PMS7003;66258;53.170;-2.240;2023-03-21T08:50:10;2357.40;2348.80;2335.40
77239;PMS7003;66258;53.170;-2.240;2023-03-21T08:52:42;2451.40;2433.20;2414.00
77239;PMS7003;66258;53.170;-2.240;2023-03-21T08:55:11;1421.40;1409.40;1380.00
77239;PMS7003;66258;53.170;-2.240;2023-03-21T08:57:40;3428.80;3427.00;3425.60
77239;PMS7003;66258;53.170;-2.240;2023-03-21T09:00:08;3096.60;3094.00;3077.20
77239;PMS7003;66258;53.170;-2.240;2023-03-21T09:02:37;1844.40;1832.80;1808.40
77239;PMS7003;66258;53.170;-2.240;2023-03-21T09:05:04;2995.60;2991.40;2973.20
77239;PMS7003;66258;53.170;-2.240;2023-03-21T09:07:32;2762.00;2744.20;2735.40
77239;PMS7003;66258;53.170;-2.240;2023-03-21T09:10:01;3117.60;3117.20;3093.80
77239;PMS7003;66258;53.170;-2.240;2023-03-21T09:12:47;2800.20;2798.80;2768.20
77239;PMS7003;66258;53.170;-2.240;2023-03-21T09:15:15;2822.40;2812.80;2803.20
77239;PMS7003;66258;53.170;-2.240;2023-03-21T09:17:42;2825.40;2817.60;2804.20
77239;PMS7003;66258;53.170;-2.240;2023-03-21T09:20:10;2631.00;2626.80;2600.60
77239;PMS7003;66258;53.170;-2.240;2023-03-21T09:22:39;2725.00;2721.80;2710.20
77239;PMS7003;66258;53.170;-2.240;2023-03-21T09:25:10;1076.00;1070.75;1054.50
77239;PMS7003;66258;53.170;-2.240;2023-03-21T09:27:38;982.80;976.40;946.80
77239;PMS7003;66258;53.170;-2.240;2023-03-21T09:30:08;763.20;761.80;724.00
77239;PMS7003;66258;53.170;-2.240;2023-03-21T09:32:37;215.75;206.50;198.50
77239;PMS7003;66258;53.170;-2.240;2023-03-21T09:35:04;55.60;46.40;30.20
77239;PMS7003;66258;53.170;-2.240;2023-03-21T09:37:32;167.00;161.80;158.80
77239;PMS7003;66258;53.170;-2.240;2023-03-21T09:39:59;1550.80;1543.40;1523.20
77239;PMS7003;66258;53.170;-2.240;2023-03-21T09:42:31;1043.40;1012.00;989.80
77239;PMS7003;66258;53.170;-2.240;2023-03-21T09:45:09;946.75;923.50;902.00
77239;PMS7003;66258;53.170;-2.240;2023-03-21T09:47:44;318.60;312.20;297.60
77239;PMS7003;66258;53.170;-2.240;2023-03-21T09:50:13;130.25;124.25;110.00
77239;PMS7003;66258;53.170;-2.240;2023-03-21T09:52:44;47.50;38.00;25.00
77239;PMS7003;66258;53.170;-2.240;2023-03-21T09:55:15;249.60;240.60;231.00
77239;PMS7003;66258;53.170;-2.240;2023-03-21T09:57:54;527.40;521.60;510.80
77239;PMS7003;66258;53.170;-2.240;2023-03-21T10:00:32;373.00;362.25;357.50
77239;PMS7003;66258;53.170;-2.240;2023-03-21T10:03:04;43.25;32.25;23.75
77239;PMS7003;66258;53.170;-2.240;2023-03-21T10:05:40;664.20;662.40;654.20
77239;PMS7003;66258;53.170;-2.240;2023-03-21T10:08:11;288.75;286.00;276.50
77239;PMS7003;66258;53.170;-2.240;2023-03-21T10:10:47;993.80;992.40;985.40
77239;PMS7003;66258;53.170;-2.240;2023-03-21T10:13:19;386.00;377.00;364.40
77239;PMS7003;66258;53.170;-2.240;2023-03-21T10:15:54;54.00;40.75;22.50
77239;PMS7003;66258;53.170;-2.240;2023-03-21T10:18:23;1160.60;1150.00;1139.00
77239;PMS7003;66258;53.170;-2.240;2023-03-21T10:20:53;65.75;51.25;41.00
77239;PMS7003;66258;53.170;-2.240;2023-03-21T10:23:21;653.75;639.75;638.25
77239;PMS7003;66258;53.170;-2.240;2023-03-21T10:25:56;767.00;738.60;729.20
77239;PMS7003;66258;53.170;-2.240;2023-03-21T10:28:29;474.75;470.50;465.50
77239;PMS7003;66258;53.170;-2.240;2023-03-21T10:31:17;38.50;35.25;24.50
77239;PMS7003;66258;53.170;-2.240;2023-03-21T10:33:48;25.25;22.25;20.25
77239;PMS7003;66258;53.170;-2.240;2023-03-21T10:36:18;521.40;516.40;507.20
77239;PMS7003;66258;53.170;-2.240;2023-03-21T10:38:48;21.50;21.00;13.75
77239;PMS7003;66258;53.170;-2.240;2023-03-21T10:41:18;19.50;19.50;17.00
77239;PMS7003;66258;53.170;-2.240;2023-03-21T10:44:02;37.00;30.50;19.75
77239;PMS7003;66258;53.170;-2.240;2023-03-21T10:46:32;30.33;30.00;24.33
77239;PMS7003;66258;53.170;-2.240;2023-03-21T10:49:01;42.25;19.75;11.25
77239;PMS7003;66258;53.170;-2.240;2023-03-21T10:51:30;381.00;381.00;371.75
77239;PMS7003;66258;53.170;-2.240;2023-03-21T10:54:00;217.75;210.75;198.25
77239;PMS7003;66258;53.170;-2.240;2023-03-21T10:56:33;43.00;36.25;26.75
77239;PMS7003;66258;53.170;-2.240;2023-03-21T10:59:08;733.00;729.67;721.33
77239;PMS7003;66258;53.170;-2.240;2023-03-21T11:01:47;369.50;368.00;365.00
77239;PMS7003;66258;53.170;-2.240;2023-03-21T11:04:16;134.00;108.40;96.80
77239;PMS7003;66258;53.170;-2.240;2023-03-21T11:06:49;19.75;19.75;18.75
77239;PMS7003;66258;53.170;-2.240;2023-03-21T11:09:20;191.67;188.67;183.67
77239;PMS7003;66258;53.170;-2.240;2023-03-21T11:11:50;212.50;199.50;188.50
77239;PMS7003;66258;53.170;-2.240;2023-03-21T11:14:26;568.50;552.25;540.50
77239;PMS7003;66258;53.170;-2.240;2023-03-21T11:17:01;590.00;585.80;581.20
77239;PMS7003;66258;53.170;-2.240;2023-03-21T11:19:47;51.75;41.50;29.50
77239;PMS7003;66258;53.170;-2.240;2023-03-21T11:22:15;835.00;825.67;819.67
77239;PMS7003;66258;53.170;-2.240;2023-03-21T11:24:49;93.75;91.25;91.00
77239;PMS7003;66258;53.170;-2.240;2023-03-21T11:27:21;717.60;704.60;702.40
77239;PMS7003;66258;53.170;-2.240;2023-03-21T11:29:54;366.75;361.00;356.00
77239;PMS7003;66258;53.170;-2.240;2023-03-21T11:32:24;34.00;31.00;22.50
77239;PMS7003;66258;53.170;-2.240;2023-03-21T11:34:58;220.40;192.00;169.60
77239;PMS7003;66258;53.170;-2.240;2023-03-21T11:37:29;591.00;577.40;566.80
77239;PMS7003;66258;53.170;-2.240;2023-03-21T11:40:04;25.50;19.75;10.75
77239;PMS7003;66258;53.170;-2.240;2023-03-21T11:42:45;109.20;61.40;39.80
77239;PMS7003;66258;53.170;-2.240;2023-03-21T11:45:17;393.00;382.00;367.50
77239;PMS7003;66258;53.170;-2.240;2023-03-21T11:47:46;259.75;259.75;257.75
77239;PMS7003;66258;53.170;-2.240;2023-03-21T11:50:18;382.80;367.60;360.80
77239;PMS7003;66258;53.170;-2.240;2023-03-21T11:53:03;764.80;755.80;751.40
77239;PMS7003;66258;53.170;-2.240;2023-03-21T11:55:45;27.50;21.50;6.25
77239;PMS7003;66258;53.170;-2.240;2023-03-21T11:58:31;110.00;110.00;107.00
77239;PMS7003;66258;53.170;-2.240;2023-03-21T12:01:14;143.00;115.00;101.20
77239;PMS7003;66258;53.170;-2.240;2023-03-21T12:04:02;207.50;197.25;187.25
77239;PMS7003;66258;53.170;-2.240;2023-03-21T12:06:40;179.25;179.25;176.75
77239;PMS7003;66258;53.170;-2.240;2023-03-21T12:09:18;33.25;26.50;12.75
77239;PMS7003;66258;53.170;-2.240;2023-03-21T12:12:02;18.67;18.67;11.67
77239;PMS7003;66258;53.170;-2.240;2023-03-21T12:14:45;3.75;3.75;3.50
77239;PMS7003;66258;53.170;-2.240;2023-03-21T12:17:31;8.50;8.50;6.50
77239;PMS7003;66258;53.170;-2.240;2023-03-21T12:20:13;21.75;21.75;20.75
77239;PMS7003;66258;53.170;-2.240;2023-03-21T12:22:51;8.75;7.75;7.75
77239;PMS7003;66258;53.170;-2.240;2023-03-21T12:25:31;9.25;9.25;9.00
77239;PMS7003;66258;53.170;-2.240;2023-03-21T12:28:08;2.25;2.25;1.25
77239;PMS7003;66258;53.170;-2.240;2023-03-21T12:31:00;9.00;8.50;8.25
77239;PMS7003;66258;53.170;-2.240;2023-03-21T12:33:46;2.50;2.50;1.25
77239;PMS7003;66258;53.170;-2.240;2023-03-21T12:36:33;20.25;20.25;19.50
77239;PMS7003;66258;53.170;-2.240;2023-03-21T12:39:15;0.25;0.25;0.25
77239;PMS7003;66258;53.170;-2.240;2023-03-21T12:41:55;0.00;0.00;0.00
77239;PMS7003;66258;53.170;-2.240;2023-03-21T12:44:36;9.25;7.00;7.00
77239;PMS7003;66258;53.170;-2.240;2023-03-21T12:47:05;0.00;0.00;0.00
77239;PMS7003;66258;53.170;-2.240;2023-03-21T12:49:38;333.75;333.75;333.75
77239;PMS7003;66258;53.170;-2.240;2023-03-21T12:52:10;15.25;12.75;11.00
77239;PMS7003;66258;53.170;-2.240;2023-03-21T12:54:41;8.25;8.25;7.50
77239;PMS7003;66258;53.170;-2.240;2023-03-21T12:57:16;26.25;26.25;20.50
77239;PMS7003;66258;53.170;-2.240;2023-03-21T12:59:49;50.50;34.25;21.00
77239;PMS7003;66258;53.170;-2.240;2023-03-21T13:02:25;5.25;5.25;4.00
77239;PMS7003;66258;53.170;-2.240;2023-03-21T13:05:00;27.00;25.25;21.50
77239;PMS7003;66258;53.170;-2.240;2023-03-21T13:07:36;35.25;33.25;27.25
77239;PMS7003;66258;53.170;-2.240;2023-03-21T13:12:43;1617.75;1613.25;1606.50
77239;PMS7003;66258;53.170;-2.240;2023-03-21T13:15:30;388.60;378.20;368.60
77239;PMS7003;66258;53.170;-2.240;2023-03-21T13:18:15;1087.75;1068.50;1058.75